createdAt,value
2019-05-25T00:00:22.195Z,74.72
2019-05-25T00:04:24.092Z,75.34
2019-05-25T00:08:26.021Z,75.08
2019-05-25T00:12:28.154Z,75.36
2019-05-25T00:16:30.453Z,75.52
2019-05-25T00:20:32.423Z,75.60
2019-05-25T00:24:34.415Z,75.57
2019-05-25T00:28:36.396Z,75.50
2019-05-25T00:32:38.307Z,75.85
2019-05-25T00:36:42.953Z,76.10
2019-05-25T00:40:44.871Z,76.17
2019-05-25T00:44:46.795Z,76.41
2019-05-25T00:48:48.700Z,76.71
2019-05-25T00:52:50.692Z,76.86
2019-05-25T00:56:52.598Z,76.90
2019-05-25T01:00:54.546Z,77.01
2019-05-25T01:04:56.446Z,77.00
2019-05-25T01:08:58.362Z,76.92
2019-05-25T01:13:00.278Z,76.87
2019-05-25T01:17:03.554Z,77.05
2019-05-25T01:21:05.625Z,77.05
2019-05-25T01:25:08.958Z,77.14
2019-05-25T01:29:10.891Z,77.36
2019-05-25T01:33:12.944Z,77.23
2019-05-25T01:37:14.863Z,77.40
2019-05-25T01:41:17.752Z,77.60
2019-05-25T01:45:19.722Z,78.06
2019-05-25T01:49:21.645Z,78.09
2019-05-25T01:53:23.561Z,78.15
2019-05-25T01:57:25.493Z,78.26
2019-05-25T02:01:27.398Z,78.04
2019-05-25T02:05:29.342Z,78.30
2019-05-25T02:09:32.086Z,78.62
2019-05-25T02:13:34.069Z,78.68
2019-05-25T02:17:35.936Z,78.61
2019-05-25T02:21:39.628Z,78.85
2019-05-25T02:25:41.593Z,79.51
2019-05-25T02:29:43.507Z,79.44
2019-05-25T02:33:45.405Z,79.45
2019-05-25T02:37:47.326Z,80.50
2019-05-25T02:41:49.215Z,80.73
2019-05-25T02:45:51.291Z,80.76
2019-05-25T02:49:53.238Z,80.66
2019-05-25T02:53:55.131Z,80.36
2019-05-25T02:57:57.093Z,81.03
2019-05-25T03:01:59.587Z,81.34
2019-05-25T03:06:04.967Z,81.75
2019-05-25T03:10:07.817Z,81.97
2019-05-25T03:14:09.783Z,81.76
2019-05-25T03:18:12.475Z,81.53
2019-05-25T03:22:14.374Z,81.33
2019-05-25T03:26:16.265Z,81.27
2019-05-25T03:30:25.572Z,81.20
2019-05-25T03:34:27.491Z,81.09
2019-05-25T03:38:29.375Z,80.88
2019-05-25T03:42:31.279Z,80.70
2019-05-25T03:46:33.163Z,80.87
2019-05-25T03:50:35.159Z,80.99
2019-05-25T03:54:37.049Z,81.03
2019-05-25T03:58:38.944Z,81.28
2019-05-25T04:02:40.881Z,81.73
2019-05-25T04:06:42.780Z,81.92
2019-05-25T04:10:44.695Z,82.20
2019-05-25T04:14:46.591Z,82.99
2019-05-25T04:18:48.855Z,82.91
2019-05-25T04:22:50.762Z,82.65
2019-05-25T04:26:52.644Z,82.65
2019-05-25T04:30:54.554Z,82.71
2019-05-25T04:34:56.454Z,82.95
2019-05-25T04:38:58.346Z,83.31
2019-05-25T04:43:00.257Z,83.40
2019-05-25T04:47:03.286Z,83.17
2019-05-25T04:51:05.182Z,83.16
2019-05-25T04:59:15.161Z,83.42
2019-05-25T05:03:17.128Z,83.81
2019-05-25T05:07:19.051Z,84.38
2019-05-25T05:11:21.050Z,83.90
2019-05-25T05:15:23.040Z,83.06
2019-05-25T05:19:24.959Z,82.73
2019-05-25T05:23:26.863Z,82.22
2019-05-25T05:27:29.058Z,81.87
2019-05-25T05:31:30.976Z,81.36
2019-05-25T05:35:38.595Z,80.64
2019-05-25T05:39:38.483Z,81.11
2019-05-25T05:43:43.979Z,80.80
2019-05-25T05:47:48.326Z,80.85
2019-05-25T05:51:52.649Z,81.02
2019-05-25T05:55:54.570Z,79.98
2019-05-25T05:59:56.487Z,77.56
2019-05-25T06:03:58.402Z,79.78
2019-05-25T06:08:00.318Z,79.22
2019-05-25T06:12:03.496Z,78.17
2019-05-25T06:16:05.475Z,78.62
2019-05-25T06:20:09.497Z,77.34
2019-05-25T06:24:12.639Z,76.84
2019-05-25T06:28:18.215Z,75.84
2019-05-25T06:32:18.289Z,74.30
2019-05-25T06:36:20.233Z,71.96
2019-05-25T06:40:22.559Z,71.15
2019-05-25T06:44:25.503Z,70.31
2019-05-25T06:48:27.422Z,68.33
2019-05-25T06:52:29.396Z,66.78
2019-05-25T06:56:31.309Z,64.59
2019-05-25T07:00:34.168Z,65.86
2019-05-25T07:04:36.074Z,64.74
2019-05-25T07:08:38.072Z,63.29
2019-05-25T07:12:40.004Z,61.70
2019-05-25T07:16:44.719Z,58.61
2019-05-25T07:20:46.624Z,58.96
2019-05-25T07:24:48.551Z,56.73
2019-05-25T07:28:50.487Z,55.60
2019-05-25T07:32:52.579Z,55.57
2019-05-25T07:36:54.475Z,54.44
2019-05-25T07:40:56.411Z,52.81
2019-05-25T07:44:58.385Z,50.67
2019-05-25T07:49:00.320Z,52.55
2019-05-25T07:53:02.216Z,51.32
2019-05-25T07:57:07.128Z,50.58
2019-05-25T08:01:09.032Z,49.79
2019-05-25T08:05:11.237Z,48.66
2019-05-25T08:09:13.135Z,48.96
2019-05-25T08:13:15.049Z,47.97
2019-05-25T08:17:16.989Z,47.18
2019-05-25T08:21:18.897Z,46.97
2019-05-25T08:25:21.101Z,47.37
2019-05-25T08:29:23.013Z,45.73
2019-05-25T08:33:24.925Z,44.43
2019-05-25T08:37:26.834Z,45.81
2019-05-25T08:41:28.742Z,44.54
2019-05-25T08:45:30.732Z,42.36
2019-05-25T08:49:32.635Z,44.35
2019-05-25T08:53:41.526Z,40.55
2019-05-25T08:57:38.163Z,41.28
2019-05-25T09:01:40.080Z,43.08
2019-05-25T09:05:42.143Z,42.69
2019-05-25T09:09:44.051Z,40.21
2019-05-25T09:13:46.009Z,40.17
2019-05-25T09:17:47.908Z,39.19
2019-05-25T09:22:02.205Z,40.98
2019-05-25T09:25:53.502Z,40.17
2019-05-25T09:29:55.420Z,38.56
2019-05-25T09:33:57.321Z,40.59
2019-05-25T09:37:59.233Z,40.67
2019-05-25T09:42:02.780Z,42.22
2019-05-25T09:46:05.967Z,41.81
2019-05-25T09:50:08.374Z,40.48
2019-05-25T09:54:10.366Z,42.03
2019-05-25T09:58:12.866Z,40.17
2019-05-25T10:02:14.774Z,39.00
2019-05-25T10:06:17.675Z,38.11
2019-05-25T10:10:20.061Z,38.00
2019-05-25T10:14:21.984Z,36.72
2019-05-25T10:18:23.916Z,37.88
2019-05-25T10:22:25.868Z,37.73
2019-05-25T10:26:27.790Z,39.37
2019-05-25T10:30:29.749Z,39.84
2019-05-25T10:34:31.653Z,38.11
2019-05-25T10:38:33.844Z,35.77
2019-05-25T10:42:35.829Z,35.34
2019-05-25T10:46:37.758Z,35.67
2019-05-25T10:50:39.699Z,36.34
2019-05-25T10:54:41.597Z,34.79
2019-05-25T10:58:43.532Z,35.43
2019-05-25T11:02:45.424Z,34.68
2019-05-25T11:06:47.350Z,35.29
2019-05-25T11:10:49.261Z,35.74
2019-05-25T11:14:51.196Z,37.21
2019-05-25T11:18:53.236Z,37.15
2019-05-25T11:22:55.216Z,37.79
2019-05-25T11:26:59.647Z,37.30
2019-05-25T11:31:00.813Z,35.88
2019-05-25T11:35:02.724Z,35.50
2019-05-25T11:39:07.750Z,36.08
2019-05-25T11:43:09.681Z,35.33
2019-05-25T11:47:12.850Z,37.14
2019-05-25T11:51:14.752Z,33.21
2019-05-25T11:55:17.952Z,35.43
2019-05-25T11:59:19.838Z,34.66
2019-05-25T12:03:21.751Z,33.89
2019-05-25T12:07:24.641Z,34.79
2019-05-25T12:11:26.536Z,35.34
2019-05-25T12:15:28.449Z,36.21
2019-05-25T12:19:30.376Z,36.38
2019-05-25T12:23:33.617Z,37.42
2019-05-25T12:27:35.526Z,39.33
2019-05-25T12:31:37.447Z,41.59
2019-05-25T12:35:40.957Z,41.71
2019-05-25T12:39:42.855Z,41.47
2019-05-25T12:43:44.777Z,41.61
2019-05-25T12:47:46.677Z,42.74
2019-05-25T12:51:48.592Z,41.30
2019-05-25T12:55:50.512Z,39.33
2019-05-25T12:59:52.424Z,36.79
2019-05-25T13:03:54.327Z,35.46
2019-05-25T13:07:56.241Z,34.52
2019-05-25T13:11:58.230Z,33.98
2019-05-25T13:16:00.165Z,33.47
2019-05-25T13:20:02.900Z,32.03
2019-05-25T13:24:04.869Z,32.15
2019-05-25T13:28:07.306Z,29.97
2019-05-25T13:32:09.223Z,31.77
2019-05-25T13:36:11.142Z,32.54
2019-05-25T13:40:13.484Z,32.06
2019-05-25T13:44:15.413Z,33.21
2019-05-25T13:48:17.311Z,32.90
2019-05-25T13:52:19.315Z,34.78
2019-05-25T13:56:21.245Z,33.25
2019-05-25T14:00:23.218Z,29.87
2019-05-25T14:04:25.132Z,30.56
2019-05-25T14:08:27.057Z,29.58
2019-05-25T14:12:29.050Z,30.87
2019-05-25T14:16:30.968Z,29.96
2019-05-25T14:20:32.869Z,29.30
2019-05-25T14:24:35.638Z,29.95
2019-05-25T14:28:39.111Z,32.54
2019-05-25T14:32:41.024Z,31.38
2019-05-25T14:36:42.943Z,33.22
2019-05-25T14:40:44.908Z,33.02
2019-05-25T14:44:46.892Z,33.03
2019-05-25T14:48:48.808Z,32.66
2019-05-25T14:52:50.823Z,34.60
2019-05-25T14:56:52.823Z,35.66
2019-05-25T15:00:54.843Z,36.91
2019-05-25T15:04:56.754Z,41.11
2019-05-25T15:08:58.654Z,44.57
2019-05-25T15:13:00.612Z,45.46
2019-05-25T15:17:02.522Z,46.83
2019-05-25T15:21:04.424Z,47.15
2019-05-25T15:25:12.208Z,47.23
2019-05-25T15:29:14.308Z,48.18
2019-05-25T15:33:16.277Z,48.80
2019-05-25T15:37:18.198Z,48.98
2019-05-25T15:41:20.161Z,48.52
2019-05-25T15:45:23.027Z,48.47
2019-05-25T15:49:32.961Z,47.63
2019-05-25T15:53:29.254Z,47.58
2019-05-25T15:57:31.164Z,47.20
2019-05-25T16:01:33.687Z,46.70
2019-05-25T16:05:35.593Z,47.94
2019-05-25T16:09:37.514Z,49.90
2019-05-25T16:13:39.446Z,52.18
2019-05-25T16:17:41.615Z,53.02
2019-05-25T16:21:51.135Z,55.64
2019-05-25T16:25:53.030Z,57.22
2019-05-25T16:29:54.947Z,58.91
2019-05-25T16:33:56.869Z,59.16
2019-05-25T16:37:58.867Z,59.27
2019-05-25T16:42:01.671Z,59.76
2019-05-25T16:46:03.565Z,60.40
2019-05-25T16:50:30.492Z,60.04
2019-05-25T16:54:32.406Z,59.96
2019-05-25T16:58:34.391Z,59.83
2019-05-25T17:02:37.342Z,62.23
2019-05-25T17:06:39.247Z,63.92
2019-05-25T17:10:41.174Z,64.51
2019-05-25T17:14:43.090Z,65.18
2019-05-25T17:18:46.142Z,64.66
2019-05-25T17:22:48.210Z,65.95
2019-05-25T17:26:50.132Z,66.60
2019-05-25T17:30:53.033Z,67.22
2019-05-25T17:34:54.941Z,69.59
2019-05-25T17:38:56.843Z,72.81
2019-05-25T17:42:58.757Z,74.56
2019-05-25T17:47:00.674Z,77.10
2019-05-25T17:51:02.575Z,79.20
2019-05-25T17:55:07.009Z,80.25
2019-05-25T17:59:08.922Z,79.71
2019-05-25T18:03:11.126Z,81.16
2019-05-25T18:07:13.303Z,82.26
2019-05-25T18:11:15.377Z,83.28
2019-05-25T18:15:17.558Z,82.73
2019-05-25T18:19:19.460Z,82.34
2019-05-25T18:23:22.537Z,82.57
2019-05-25T18:27:24.450Z,83.21
2019-05-25T18:31:26.371Z,82.46
2019-05-25T18:35:28.289Z,81.77
2019-05-25T18:39:30.231Z,81.87
2019-05-25T18:43:32.150Z,81.85
2019-05-25T18:47:34.070Z,82.22
2019-05-25T18:51:35.957Z,83.33
2019-05-25T18:55:37.879Z,83.17
2019-05-25T18:59:39.792Z,84.42
2019-05-25T19:03:41.714Z,84.84
2019-05-25T19:07:43.645Z,84.37
2019-05-25T19:11:45.560Z,84.84
2019-05-25T19:15:47.469Z,84.29
2019-05-25T19:19:49.385Z,83.72
2019-05-25T19:23:51.318Z,83.49
2019-05-25T19:27:53.244Z,84.00
2019-05-25T19:31:55.140Z,83.74
2019-05-25T19:35:57.263Z,83.73
2019-05-25T19:39:59.191Z,82.84
2019-05-25T19:44:01.122Z,83.74
2019-05-25T19:48:03.041Z,83.89
2019-05-25T19:52:05.708Z,84.25
2019-05-25T19:56:07.996Z,84.49
2019-05-25T20:00:11.739Z,83.97
2019-05-25T20:04:13.639Z,83.21
2019-05-25T20:08:15.567Z,83.66
2019-05-25T20:12:17.464Z,83.71
2019-05-25T20:16:19.398Z,83.90
2019-05-25T20:20:21.722Z,84.27
2019-05-25T20:24:23.676Z,84.54
2019-05-25T20:28:25.601Z,84.57
2019-05-25T20:32:27.512Z,85.08
2019-05-25T20:36:29.422Z,85.17
2019-05-25T20:40:31.328Z,85.46
2019-05-25T20:44:33.251Z,85.40
2019-05-25T20:48:35.154Z,85.43
2019-05-25T20:52:37.100Z,85.71
2019-05-25T20:56:39.010Z,86.22
2019-05-25T21:00:41.764Z,86.62
2019-05-25T21:04:43.727Z,85.99
2019-05-25T21:08:45.698Z,85.54
2019-05-25T21:12:48.473Z,85.83
2019-05-25T21:16:50.846Z,86.20
2019-05-25T21:20:56.786Z,86.43
2019-05-25T21:25:05.283Z,85.65
2019-05-25T21:29:02.341Z,86.59
2019-05-25T21:33:04.249Z,86.83
2019-05-25T21:37:06.325Z,86.91
2019-05-25T21:41:08.256Z,87.43
2019-05-25T21:45:10.578Z,87.29
2019-05-25T21:49:13.554Z,87.17
2019-05-25T21:53:15.489Z,87.00
2019-05-25T21:57:17.386Z,87.08
2019-05-25T22:01:19.564Z,87.18
2019-05-25T22:05:21.992Z,86.34
2019-05-25T22:09:23.913Z,86.72
2019-05-25T22:13:28.900Z,86.93
2019-05-25T22:17:30.445Z,87.23
2019-05-25T22:21:32.392Z,87.84
2019-05-25T22:25:34.390Z,87.53
2019-05-25T22:29:36.329Z,87.62
2019-05-25T22:33:38.272Z,87.46
2019-05-25T22:37:40.218Z,87.37
2019-05-25T22:41:43.216Z,86.67
2019-05-25T22:45:45.171Z,86.44
2019-05-25T22:49:47.141Z,86.83
2019-05-25T22:53:49.130Z,86.77
2019-05-25T22:57:51.065Z,87.39
2019-05-25T23:01:53.026Z,87.75
2019-05-25T23:05:54.952Z,88.01
2019-05-25T23:09:56.900Z,88.18
2019-05-25T23:13:58.823Z,88.28
2019-05-25T23:18:00.770Z,88.43
2019-05-25T23:22:02.730Z,88.88
2019-05-25T23:26:04.754Z,88.92
2019-05-25T23:30:08.905Z,88.93
2019-05-25T23:34:10.853Z,88.37
2019-05-25T23:38:13.461Z,88.47
2019-05-25T23:42:15.383Z,88.36
2019-05-25T23:46:17.365Z,88.40
2019-05-25T23:50:19.536Z,88.93
2019-05-25T23:54:21.471Z,89.31
2019-05-25T23:58:23.438Z,89.36
